Hauptseite
METAR-TAF:

METAR-TAF

Flughäfen :

Flughafen Jersey

Jersey,

Breite: 49-13N, Länge: 002-12W, Höhe: 84 m

Beobachtung

Neuester Wetterbericht von vor 37 Minuten, um 18:50 UTC
Wind 5 kt aus Ost
Temperatur 17°C
Luftfeuchtigkeit 59%
Luftdruck 1018 hPa
Sichtweite 10 km oder mehr
keine Wolken unter 1500 m und keine Kumulonimbus oder Gewitterwolken

METAR: EGJJ 221850Z 08005KT CAVOK 17/09 Q1018

Zeit: 20:27 (19:27 UTC)

Prognose

Neuester Wetterbericht von vor 2 Stunden und 21 Minuten, um 17:06 UTC
Gültige Prognose vom 22 um 18 UTC bis 23 um 03 UTC
Wind 5 kt aus Ost/Nordost
Sichtweite 10 km oder mehr
keine Wolken unter 1500 m und keine Kumulonimbus oder Gewitterwolken

TAF: EGJJ 221706Z 2218/2303 07005KT CAVOK

Wetterbeobachtungen und Prognosen von mehr als 4000 Flughäfen (METAR und TAF Bericht).

Die verfügbaren Stationen werden durch gelbe und rote Markierungen auf der Karte dargestellt.

Führen Sie die Maus auf sie, um den Namen der Station zu sehen.

Darauf klicken, um die Beobachtung von Wetterbeobachtungen und Prognosen zu sehen.

Um die Karte zu ändern : klicken Sie auf den grünen Tasten mit einem schwarzen Kreuz Zum Vergrößern, auf den grünen Button mit einem Gedankenstrich zu verkleinern, oder auf die grünen Pfeile für benachbarte Karten.


METAR-TAF: